sensor_id;sensor_type;location;lat;lon;timestamp;P1;durP1;ratioP1;P2;durP2;ratioP2
72464;SDS011;60471;52.150;4.508;2023-03-21T00:02:02;42.63;;;26.17;;
72464;SDS011;60471;52.150;4.508;2023-03-21T00:04:28;44.85;;;25.40;;
72464;SDS011;60471;52.150;4.508;2023-03-21T00:06:55;46.17;;;27.27;;
72464;SDS011;60471;52.150;4.508;2023-03-21T00:09:22;47.17;;;28.67;;
72464;SDS011;60471;52.150;4.508;2023-03-21T00:11:48;46.08;;;28.05;;
72464;SDS011;60471;52.150;4.508;2023-03-21T00:14:15;46.63;;;26.58;;
72464;SDS011;60471;52.150;4.508;2023-03-21T00:16:43;49.15;;;27.20;;
72464;SDS011;60471;52.150;4.508;2023-03-21T00:19:10;42.63;;;25.23;;
72464;SDS011;60471;52.150;4.508;2023-03-21T00:21:37;47.28;;;28.33;;
72464;SDS011;60471;52.150;4.508;2023-03-21T00:24:07;46.60;;;28.17;;
72464;SDS011;60471;52.150;4.508;2023-03-21T00:26:34;52.35;;;29.02;;
72464;SDS011;60471;52.150;4.508;2023-03-21T00:29:00;46.47;;;28.17;;
72464;SDS011;60471;52.150;4.508;2023-03-21T00:31:27;50.45;;;30.00;;
72464;SDS011;60471;52.150;4.508;2023-03-21T00:33:53;48.42;;;28.85;;
72464;SDS011;60471;52.150;4.508;2023-03-21T00:36:19;49.45;;;29.58;;
72464;SDS011;60471;52.150;4.508;2023-03-21T00:38:46;50.17;;;27.80;;
72464;SDS011;60471;52.150;4.508;2023-03-21T00:41:12;45.67;;;29.15;;
72464;SDS011;60471;52.150;4.508;2023-03-21T00:43:41;47.95;;;27.98;;
72464;SDS011;60471;52.150;4.508;2023-03-21T00:46:10;48.38;;;27.60;;
72464;SDS011;60471;52.150;4.508;2023-03-21T00:48:37;45.65;;;29.42;;
72464;SDS011;60471;52.150;4.508;2023-03-21T00:51:09;51.70;;;29.70;;
72464;SDS011;60471;52.150;4.508;2023-03-21T00:53:46;52.13;;;28.35;;
72464;SDS011;60471;52.150;4.508;2023-03-21T00:56:12;55.97;;;31.33;;
72464;SDS011;60471;52.150;4.508;2023-03-21T00:58:38;48.33;;;31.52;;
72464;SDS011;60471;52.150;4.508;2023-03-21T01:01:04;53.22;;;30.38;;
72464;SDS011;60471;52.150;4.508;2023-03-21T01:03:34;50.40;;;28.77;;
72464;SDS011;60471;52.150;4.508;2023-03-21T01:06:10;78.43;;;32.47;;
72464;SDS011;60471;52.150;4.508;2023-03-21T01:08:39;63.15;;;31.38;;
72464;SDS011;60471;52.150;4.508;2023-03-21T01:11:09;59.17;;;30.15;;
72464;SDS011;60471;52.150;4.508;2023-03-21T01:13:39;59.85;;;32.95;;
72464;SDS011;60471;52.150;4.508;2023-03-21T01:16:06;55.38;;;29.50;;
72464;SDS011;60471;52.150;4.508;2023-03-21T01:18:35;65.20;;;33.30;;
72464;SDS011;60471;52.150;4.508;2023-03-21T01:21:05;68.30;;;35.08;;
72464;SDS011;60471;52.150;4.508;2023-03-21T01:26:23;60.78;;;34.85;;
72464;SDS011;60471;52.150;4.508;2023-03-21T01:28:49;57.72;;;34.45;;
72464;SDS011;60471;52.150;4.508;2023-03-21T01:31:16;61.22;;;32.88;;
72464;SDS011;60471;52.150;4.508;2023-03-21T01:33:43;62.88;;;33.13;;
72464;SDS011;60471;52.150;4.508;2023-03-21T01:36:13;54.17;;;32.72;;
72464;SDS011;60471;52.150;4.508;2023-03-21T01:38:42;54.83;;;31.83;;
72464;SDS011;60471;52.150;4.508;2023-03-21T01:44:00;52.45;;;29.08;;
72464;SDS011;60471;52.150;4.508;2023-03-21T01:52:09;52.40;;;29.45;;
72464;SDS011;60471;52.150;4.508;2023-03-21T01:54:59;47.78;;;28.95;;
72464;SDS011;60471;52.150;4.508;2023-03-21T01:57:33;41.72;;;25.30;;
72464;SDS011;60471;52.150;4.508;2023-03-21T02:00:07;48.10;;;23.77;;
72464;SDS011;60471;52.150;4.508;2023-03-21T02:02:38;45.72;;;24.60;;
72464;SDS011;60471;52.150;4.508;2023-03-21T02:08:25;41.75;;;25.48;;
72464;SDS011;60471;52.150;4.508;2023-03-21T02:10:56;42.95;;;23.77;;
72464;SDS011;60471;52.150;4.508;2023-03-21T02:13:23;48.78;;;26.50;;
72464;SDS011;60471;52.150;4.508;2023-03-21T02:15:53;49.78;;;26.15;;
72464;SDS011;60471;52.150;4.508;2023-03-21T02:18:51;48.08;;;28.17;;
72464;SDS011;60471;52.150;4.508;2023-03-21T02:21:34;46.20;;;26.35;;
72464;SDS011;60471;52.150;4.508;2023-03-21T02:24:33;39.90;;;24.17;;
72464;SDS011;60471;52.150;4.508;2023-03-21T02:27:58;47.50;;;27.33;;
72464;SDS011;60471;52.150;4.508;2023-03-21T02:36:24;54.33;;;30.42;;
72464;SDS011;60471;52.150;4.508;2023-03-21T02:42:21;58.10;;;31.10;;
72464;SDS011;60471;52.150;4.508;2023-03-21T02:45:32;62.78;;;31.63;;
72464;SDS011;60471;52.150;4.508;2023-03-21T02:48:10;53.50;;;28.27;;
72464;SDS011;60471;52.150;4.508;2023-03-21T02:53:13;55.30;;;28.35;;
72464;SDS011;60471;52.150;4.508;2023-03-21T02:55:44;51.33;;;28.80;;
72464;SDS011;60471;52.150;4.508;2023-03-21T02:58:17;48.97;;;27.55;;
72464;SDS011;60471;52.150;4.508;2023-03-21T03:00:48;45.13;;;26.17;;
72464;SDS011;60471;52.150;4.508;2023-03-21T03:03:20;54.67;;;30.55;;
72464;SDS011;60471;52.150;4.508;2023-03-21T03:05:48;66.00;;;29.02;;
72464;SDS011;60471;52.150;4.508;2023-03-21T03:17:02;52.50;;;25.52;;
72464;SDS011;60471;52.150;4.508;2023-03-21T03:25:34;47.17;;;24.92;;
72464;SDS011;60471;52.150;4.508;2023-03-21T03:28:12;51.88;;;26.08;;
72464;SDS011;60471;52.150;4.508;2023-03-21T03:30:45;42.30;;;24.00;;
72464;SDS011;60471;52.150;4.508;2023-03-21T03:33:13;40.88;;;19.55;;
72464;SDS011;60471;52.150;4.508;2023-03-21T03:35:43;42.47;;;19.35;;
72464;SDS011;60471;52.150;4.508;2023-03-21T03:38:11;39.13;;;19.23;;
72464;SDS011;60471;52.150;4.508;2023-03-21T03:40:45;36.63;;;19.17;;
72464;SDS011;60471;52.150;4.508;2023-03-21T03:43:20;40.13;;;19.30;;
72464;SDS011;60471;52.150;4.508;2023-03-21T03:45:57;33.75;;;17.42;;
72464;SDS011;60471;52.150;4.508;2023-03-21T03:48:37;50.78;;;19.52;;
72464;SDS011;60471;52.150;4.508;2023-03-21T03:51:16;43.83;;;18.27;;
72464;SDS011;60471;52.150;4.508;2023-03-21T03:53:56;37.47;;;17.15;;
72464;SDS011;60471;52.150;4.508;2023-03-21T03:56:29;36.58;;;17.73;;
72464;SDS011;60471;52.150;4.508;2023-03-21T03:59:00;35.50;;;16.23;;
72464;SDS011;60471;52.150;4.508;2023-03-21T04:01:29;30.42;;;16.27;;
72464;SDS011;60471;52.150;4.508;2023-03-21T04:03:56;36.42;;;16.80;;
72464;SDS011;60471;52.150;4.508;2023-03-21T04:06:22;32.30;;;15.35;;
72464;SDS011;60471;52.150;4.508;2023-03-21T04:08:49;37.42;;;16.55;;
72464;SDS011;60471;52.150;4.508;2023-03-21T04:11:15;36.28;;;16.48;;
72464;SDS011;60471;52.150;4.508;2023-03-21T04:13:42;34.85;;;16.23;;
72464;SDS011;60471;52.150;4.508;2023-03-21T04:16:08;31.63;;;15.77;;
72464;SDS011;60471;52.150;4.508;2023-03-21T04:18:36;38.83;;;17.00;;
72464;SDS011;60471;52.150;4.508;2023-03-21T04:21:08;41.97;;;18.17;;
72464;SDS011;60471;52.150;4.508;2023-03-21T04:23:38;35.63;;;16.92;;
72464;SDS011;60471;52.150;4.508;2023-03-21T04:26:06;35.70;;;18.20;;
72464;SDS011;60471;52.150;4.508;2023-03-21T04:28:33;32.33;;;15.75;;
72464;SDS011;60471;52.150;4.508;2023-03-21T04:31:03;33.80;;;17.65;;
72464;SDS011;60471;52.150;4.508;2023-03-21T04:33:31;39.42;;;17.85;;
72464;SDS011;60471;52.150;4.508;2023-03-21T04:36:03;34.40;;;17.70;;
72464;SDS011;60471;52.150;4.508;2023-03-21T04:38:34;43.90;;;19.55;;
72464;SDS011;60471;52.150;4.508;2023-03-21T04:41:01;39.63;;;17.95;;
72464;SDS011;60471;52.150;4.508;2023-03-21T04:43:28;51.75;;;18.25;;
72464;SDS011;60471;52.150;4.508;2023-03-21T04:45:55;36.97;;;18.00;;
72464;SDS011;60471;52.150;4.508;2023-03-21T04:48:21;41.53;;;18.38;;
72464;SDS011;60471;52.150;4.508;2023-03-21T04:50:49;37.10;;;19.15;;
72464;SDS011;60471;52.150;4.508;2023-03-21T04:53:16;45.03;;;20.33;;
72464;SDS011;60471;52.150;4.508;2023-03-21T04:55:43;51.17;;;18.42;;
72464;SDS011;60471;52.150;4.508;2023-03-21T04:58:09;38.15;;;17.80;;
72464;SDS011;60471;52.150;4.508;2023-03-21T05:00:36;40.40;;;20.70;;
72464;SDS011;60471;52.150;4.508;2023-03-21T05:03:04;40.10;;;20.05;;
72464;SDS011;60471;52.150;4.508;2023-03-21T05:05:34;42.47;;;22.10;;
72464;SDS011;60471;52.150;4.508;2023-03-21T05:08:02;52.45;;;22.55;;
72464;SDS011;60471;52.150;4.508;2023-03-21T05:10:30;41.88;;;23.75;;
72464;SDS011;60471;52.150;4.508;2023-03-21T05:12:57;45.33;;;23.45;;
72464;SDS011;60471;52.150;4.508;2023-03-21T05:15:23;47.03;;;23.63;;
72464;SDS011;60471;52.150;4.508;2023-03-21T05:17:50;47.30;;;23.42;;
72464;SDS011;60471;52.150;4.508;2023-03-21T05:20:16;48.03;;;24.98;;
72464;SDS011;60471;52.150;4.508;2023-03-21T05:22:42;47.80;;;24.77;;
72464;SDS011;60471;52.150;4.508;2023-03-21T05:25:11;48.35;;;24.02;;
72464;SDS011;60471;52.150;4.508;2023-03-21T05:27:38;48.40;;;23.67;;
72464;SDS011;60471;52.150;4.508;2023-03-21T05:30:10;45.65;;;22.35;;
72464;SDS011;60471;52.150;4.508;2023-03-21T05:32:42;53.97;;;24.50;;
72464;SDS011;60471;52.150;4.508;2023-03-21T05:35:08;45.67;;;23.13;;
72464;SDS011;60471;52.150;4.508;2023-03-21T05:37:34;44.83;;;21.92;;
72464;SDS011;60471;52.150;4.508;2023-03-21T05:40:01;45.33;;;22.65;;
72464;SDS011;60471;52.150;4.508;2023-03-21T05:42:30;42.42;;;21.10;;
72464;SDS011;60471;52.150;4.508;2023-03-21T05:44:57;45.42;;;22.30;;
72464;SDS011;60471;52.150;4.508;2023-03-21T05:47:24;39.63;;;20.60;;
72464;SDS011;60471;52.150;4.508;2023-03-21T05:49:50;53.92;;;22.13;;
72464;SDS011;60471;52.150;4.508;2023-03-21T05:52:17;44.90;;;21.67;;
72464;SDS011;60471;52.150;4.508;2023-03-21T05:54:43;42.97;;;21.25;;
72464;SDS011;60471;52.150;4.508;2023-03-21T05:57:10;43.25;;;22.17;;
72464;SDS011;60471;52.150;4.508;2023-03-21T05:59:36;60.83;;;33.15;;
72464;SDS011;60471;52.150;4.508;2023-03-21T06:02:02;40.88;;;21.83;;
72464;SDS011;60471;52.150;4.508;2023-03-21T06:04:29;33.67;;;18.38;;
72464;SDS011;60471;52.150;4.508;2023-03-21T06:06:55;34.58;;;20.38;;
72464;SDS011;60471;52.150;4.508;2023-03-21T06:09:22;44.63;;;20.60;;
72464;SDS011;60471;52.150;4.508;2023-03-21T06:11:53;41.45;;;21.38;;
72464;SDS011;60471;52.150;4.508;2023-03-21T06:16:49;38.75;;;19.92;;
72464;SDS011;60471;52.150;4.508;2023-03-21T06:19:19;39.22;;;18.73;;
72464;SDS011;60471;52.150;4.508;2023-03-21T06:21:48;40.30;;;19.60;;
72464;SDS011;60471;52.150;4.508;2023-03-21T06:24:15;38.50;;;18.63;;
72464;SDS011;60471;52.150;4.508;2023-03-21T06:26:43;112.78;;;64.65;;
72464;SDS011;60471;52.150;4.508;2023-03-21T06:29:10;39.78;;;20.55;;
72464;SDS011;60471;52.150;4.508;2023-03-21T06:31:37;38.35;;;19.45;;
72464;SDS011;60471;52.150;4.508;2023-03-21T06:34:03;37.55;;;19.65;;
72464;SDS011;60471;52.150;4.508;2023-03-21T06:36:29;46.75;;;21.13;;
72464;SDS011;60471;52.150;4.508;2023-03-21T06:38:55;34.75;;;20.13;;
72464;SDS011;60471;52.150;4.508;2023-03-21T06:41:21;42.70;;;20.83;;
72464;SDS011;60471;52.150;4.508;2023-03-21T06:43:48;34.85;;;20.25;;
72464;SDS011;60471;52.150;4.508;2023-03-21T06:46:14;37.97;;;19.63;;
72464;SDS011;60471;52.150;4.508;2023-03-21T06:48:40;38.25;;;21.05;;
72464;SDS011;60471;52.150;4.508;2023-03-21T06:51:13;43.83;;;21.95;;
72464;SDS011;60471;52.150;4.508;2023-03-21T06:53:40;43.67;;;20.88;;
72464;SDS011;60471;52.150;4.508;2023-03-21T06:56:08;37.17;;;19.05;;
72464;SDS011;60471;52.150;4.508;2023-03-21T06:58:35;40.88;;;19.05;;
72464;SDS011;60471;52.150;4.508;2023-03-21T07:01:03;34.80;;;17.65;;
72464;SDS011;60471;52.150;4.508;2023-03-21T07:03:30;37.40;;;17.90;;
72464;SDS011;60471;52.150;4.508;2023-03-21T07:05:57;72.43;;;37.55;;
72464;SDS011;60471;52.150;4.508;2023-03-21T07:08:28;39.53;;;22.77;;
72464;SDS011;60471;52.150;4.508;2023-03-21T07:10:54;35.85;;;16.45;;
72464;SDS011;60471;52.150;4.508;2023-03-21T07:13:22;31.30;;;14.23;;
72464;SDS011;60471;52.150;4.508;2023-03-21T07:15:49;29.75;;;14.65;;
72464;SDS011;60471;52.150;4.508;2023-03-21T07:18:15;36.70;;;16.15;;
72464;SDS011;60471;52.150;4.508;2023-03-21T07:20:44;38.97;;;16.63;;
72464;SDS011;60471;52.150;4.508;2023-03-21T07:23:19;40.80;;;15.18;;
72464;SDS011;60471;52.150;4.508;2023-03-21T07:25:48;36.08;;;15.50;;
72464;SDS011;60471;52.150;4.508;2023-03-21T07:28:16;32.60;;;14.60;;
72464;SDS011;60471;52.150;4.508;2023-03-21T07:30:44;38.50;;;17.30;;
72464;SDS011;60471;52.150;4.508;2023-03-21T07:35:42;32.75;;;15.43;;
72464;SDS011;60471;52.150;4.508;2023-03-21T07:38:08;37.30;;;15.38;;
72464;SDS011;60471;52.150;4.508;2023-03-21T07:40:34;34.25;;;15.95;;
72464;SDS011;60471;52.150;4.508;2023-03-21T07:43:00;42.40;;;17.88;;
72464;SDS011;60471;52.150;4.508;2023-03-21T07:45:27;36.83;;;16.58;;
72464;SDS011;60471;52.150;4.508;2023-03-21T07:47:53;48.65;;;25.10;;
72464;SDS011;60471;52.150;4.508;2023-03-21T07:50:19;43.13;;;18.95;;
72464;SDS011;60471;52.150;4.508;2023-03-21T07:52:46;40.95;;;18.67;;
72464;SDS011;60471;52.150;4.508;2023-03-21T07:55:13;40.75;;;17.25;;
72464;SDS011;60471;52.150;4.508;2023-03-21T07:57:42;39.72;;;19.10;;
72464;SDS011;60471;52.150;4.508;2023-03-21T08:00:09;42.03;;;18.65;;
72464;SDS011;60471;52.150;4.508;2023-03-21T08:02:37;46.42;;;19.13;;
72464;SDS011;60471;52.150;4.508;2023-03-21T08:05:03;43.53;;;18.55;;
72464;SDS011;60471;52.150;4.508;2023-03-21T08:07:30;34.47;;;16.73;;
72464;SDS011;60471;52.150;4.508;2023-03-21T08:09:57;32.58;;;15.88;;
72464;SDS011;60471;52.150;4.508;2023-03-21T08:12:23;31.42;;;16.13;;
72464;SDS011;60471;52.150;4.508;2023-03-21T08:14:49;29.85;;;17.88;;
72464;SDS011;60471;52.150;4.508;2023-03-21T08:17:16;31.60;;;14.85;;
72464;SDS011;60471;52.150;4.508;2023-03-21T08:19:42;31.65;;;15.70;;
72464;SDS011;60471;52.150;4.508;2023-03-21T08:22:09;36.97;;;16.05;;
72464;SDS011;60471;52.150;4.508;2023-03-21T08:24:35;34.28;;;16.45;;
72464;SDS011;60471;52.150;4.508;2023-03-21T08:27:02;40.42;;;15.85;;
72464;SDS011;60471;52.150;4.508;2023-03-21T08:29:28;36.95;;;15.65;;
72464;SDS011;60471;52.150;4.508;2023-03-21T08:31:54;34.95;;;14.55;;
72464;SDS011;60471;52.150;4.508;2023-03-21T08:34:21;26.13;;;11.35;;
72464;SDS011;60471;52.150;4.508;2023-03-21T08:36:47;27.52;;;11.50;;
72464;SDS011;60471;52.150;4.508;2023-03-21T08:39:14;27.75;;;12.48;;
72464;SDS011;60471;52.150;4.508;2023-03-21T08:41:40;29.88;;;13.50;;
72464;SDS011;60471;52.150;4.508;2023-03-21T08:44:06;27.30;;;11.07;;
72464;SDS011;60471;52.150;4.508;2023-03-21T08:46:32;28.25;;;11.70;;
72464;SDS011;60471;52.150;4.508;2023-03-21T08:48:58;21.88;;;9.73;;
72464;SDS011;60471;52.150;4.508;2023-03-21T08:51:25;24.00;;;9.90;;
72464;SDS011;60471;52.150;4.508;2023-03-21T08:53:51;20.13;;;8.05;;
72464;SDS011;60471;52.150;4.508;2023-03-21T08:56:17;38.78;;;19.25;;
72464;SDS011;60471;52.150;4.508;2023-03-21T08:58:44;22.23;;;11.70;;
72464;SDS011;60471;52.150;4.508;2023-03-21T09:01:10;15.93;;;7.32;;
72464;SDS011;60471;52.150;4.508;2023-03-21T09:03:40;16.27;;;6.75;;
72464;SDS011;60471;52.150;4.508;2023-03-21T09:06:08;21.45;;;7.15;;
72464;SDS011;60471;52.150;4.508;2023-03-21T09:08:37;18.73;;;8.30;;
72464;SDS011;60471;52.150;4.508;2023-03-21T09:11:04;17.88;;;7.95;;
72464;SDS011;60471;52.150;4.508;2023-03-21T09:13:35;17.52;;;7.45;;
72464;SDS011;60471;52.150;4.508;2023-03-21T09:16:01;22.30;;;7.68;;
72464;SDS011;60471;52.150;4.508;2023-03-21T09:18:28;22.60;;;9.05;;
72464;SDS011;60471;52.150;4.508;2023-03-21T09:21:12;16.58;;;8.18;;
72464;SDS011;60471;52.150;4.508;2023-03-21T09:23:40;20.48;;;8.68;;
72464;SDS011;60471;52.150;4.508;2023-03-21T09:26:07;20.52;;;8.98;;
72464;SDS011;60471;52.150;4.508;2023-03-21T09:28:34;21.63;;;9.13;;
72464;SDS011;60471;52.150;4.508;2023-03-21T09:31:04;22.95;;;7.85;;
72464;SDS011;60471;52.150;4.508;2023-03-21T09:33:33;21.70;;;8.95;;
72464;SDS011;60471;52.150;4.508;2023-03-21T09:36:00;25.42;;;9.48;;
72464;SDS011;60471;52.150;4.508;2023-03-21T09:38:26;19.70;;;8.27;;
72464;SDS011;60471;52.150;4.508;2023-03-21T09:47:27;19.90;;;8.77;;
72464;SDS011;60471;52.150;4.508;2023-03-21T09:55:32;21.02;;;9.45;;
72464;SDS011;60471;52.150;4.508;2023-03-21T10:03:47;24.45;;;9.52;;
72464;SDS011;60471;52.150;4.508;2023-03-21T10:06:18;21.05;;;10.45;;
72464;SDS011;60471;52.150;4.508;2023-03-21T10:08:51;25.20;;;9.88;;
72464;SDS011;60471;52.150;4.508;2023-03-21T10:11:26;25.13;;;9.65;;
72464;SDS011;60471;52.150;4.508;2023-03-21T10:14:04;20.05;;;9.57;;
72464;SDS011;60471;52.150;4.508;2023-03-21T10:16:47;23.10;;;11.50;;
72464;SDS011;60471;52.150;4.508;2023-03-21T10:19:18;29.05;;;9.80;;
72464;SDS011;60471;52.150;4.508;2023-03-21T10:21:46;19.70;;;8.85;;
72464;SDS011;60471;52.150;4.508;2023-03-21T10:24:15;24.42;;;9.57;;
72464;SDS011;60471;52.150;4.508;2023-03-21T10:26:47;23.13;;;9.63;;
72464;SDS011;60471;52.150;4.508;2023-03-21T10:29:16;23.05;;;8.88;;
72464;SDS011;60471;52.150;4.508;2023-03-21T10:31:47;22.00;;;7.90;;
72464;SDS011;60471;52.150;4.508;2023-03-21T10:34:23;22.60;;;8.27;;
72464;SDS011;60471;52.150;4.508;2023-03-21T10:37:01;19.50;;;7.78;;
72464;SDS011;60471;52.150;4.508;2023-03-21T10:42:04;20.55;;;7.90;;
72464;SDS011;60471;52.150;4.508;2023-03-21T10:44:32;23.08;;;8.55;;
72464;SDS011;60471;52.150;4.508;2023-03-21T10:47:04;29.10;;;9.98;;
72464;SDS011;60471;52.150;4.508;2023-03-21T10:49:35;23.27;;;9.30;;
72464;SDS011;60471;52.150;4.508;2023-03-21T10:52:04;26.52;;;10.05;;
72464;SDS011;60471;52.150;4.508;2023-03-21T10:54:42;21.30;;;9.57;;
72464;SDS011;60471;52.150;4.508;2023-03-21T10:57:22;26.05;;;10.98;;
72464;SDS011;60471;52.150;4.508;2023-03-21T10:59:52;26.52;;;11.30;;
72464;SDS011;60471;52.150;4.508;2023-03-21T11:02:27;25.35;;;10.35;;
72464;SDS011;60471;52.150;4.508;2023-03-21T11:05:05;19.38;;;9.02;;
72464;SDS011;60471;52.150;4.508;2023-03-21T11:07:43;24.42;;;9.85;;
72464;SDS011;60471;52.150;4.508;2023-03-21T11:10:25;25.25;;;10.75;;
72464;SDS011;60471;52.150;4.508;2023-03-21T11:13:04;17.33;;;9.20;;
72464;SDS011;60471;52.150;4.508;2023-03-21T11:15:47;21.65;;;10.30;;
72464;SDS011;60471;52.150;4.508;2023-03-21T11:18:23;28.13;;;9.68;;
72464;SDS011;60471;52.150;4.508;2023-03-21T11:20:56;20.52;;;8.57;;
72464;SDS011;60471;52.150;4.508;2023-03-21T11:23:29;20.20;;;9.75;;
72464;SDS011;60471;52.150;4.508;2023-03-21T11:25:59;22.42;;;9.63;;
72464;SDS011;60471;52.150;4.508;2023-03-21T11:28:39;17.70;;;8.00;;
72464;SDS011;60471;52.150;4.508;2023-03-21T11:31:07;18.27;;;9.63;;
72464;SDS011;60471;52.150;4.508;2023-03-21T11:33:38;23.15;;;10.27;;
72464;SDS011;60471;52.150;4.508;2023-03-21T11:38:43;25.85;;;11.02;;
72464;SDS011;60471;52.150;4.508;2023-03-21T11:41:22;24.52;;;9.68;;
72464;SDS011;60471;52.150;4.508;2023-03-21T11:43:59;28.38;;;11.20;;
72464;SDS011;60471;52.150;4.508;2023-03-21T11:46:31;25.10;;;9.68;;
72464;SDS011;60471;52.150;4.508;2023-03-21T11:49:07;20.98;;;10.10;;
72464;SDS011;60471;52.150;4.508;2023-03-21T11:51:37;29.02;;;11.63;;
72464;SDS011;60471;52.150;4.508;2023-03-21T11:57:31;21.05;;;8.98;;
72464;SDS011;60471;52.150;4.508;2023-03-21T12:00:20;20.70;;;8.55;;
72464;SDS011;60471;52.150;4.508;2023-03-21T12:05:57;16.85;;;7.25;;
72464;SDS011;60471;52.150;4.508;2023-03-21T12:17:45;17.58;;;6.78;;
72464;SDS011;60471;52.150;4.508;2023-03-21T12:20:22;18.10;;;7.30;;
72464;SDS011;60471;52.150;4.508;2023-03-21T12:34:26;17.73;;;6.75;;
72464;SDS011;60471;52.150;4.508;2023-03-21T12:46:02;18.95;;;7.15;;
72464;SDS011;60471;52.150;4.508;2023-03-21T12:48:40;18.00;;;6.78;;
72464;SDS011;60471;52.150;4.508;2023-03-21T12:51:15;17.67;;;7.90;;
72464;SDS011;60471;52.150;4.508;2023-03-21T12:53:50;16.58;;;7.45;;
72464;SDS011;60471;52.150;4.508;2023-03-21T12:56:31;14.43;;;5.93;;
72464;SDS011;60471;52.150;4.508;2023-03-21T12:59:16;15.38;;;5.80;;
72464;SDS011;60471;52.150;4.508;2023-03-21T13:01:53;17.00;;;5.35;;
72464;SDS011;60471;52.150;4.508;2023-03-21T13:07:22;13.40;;;5.88;;
72464;SDS011;60471;52.150;4.508;2023-03-21T13:09:51;15.00;;;5.78;;
72464;SDS011;60471;52.150;4.508;2023-03-21T13:12:35;16.15;;;6.00;;
72464;SDS011;60471;52.150;4.508;2023-03-21T13:21:47;15.85;;;6.28;;
72464;SDS011;60471;52.150;4.508;2023-03-21T13:27:14;13.77;;;6.15;;
72464;SDS011;60471;52.150;4.508;2023-03-21T13:32:50;13.32;;;6.18;;
72464;SDS011;60471;52.150;4.508;2023-03-21T13:38:04;15.50;;;6.20;;
72464;SDS011;60471;52.150;4.508;2023-03-21T13:46:33;15.68;;;6.78;;
72464;SDS011;60471;52.150;4.508;2023-03-21T13:51:43;15.98;;;7.60;;
72464;SDS011;60471;52.150;4.508;2023-03-21T14:03:08;12.73;;;5.82;;
72464;SDS011;60471;52.150;4.508;2023-03-21T14:05:42;16.05;;;6.32;;
72464;SDS011;60471;52.150;4.508;2023-03-21T14:08:16;19.98;;;7.07;;
72464;SDS011;60471;52.150;4.508;2023-03-21T14:10:45;18.80;;;6.68;;
72464;SDS011;60471;52.150;4.508;2023-03-21T14:13:22;16.27;;;6.10;;
72464;SDS011;60471;52.150;4.508;2023-03-21T14:16:11;14.93;;;7.25;;
72464;SDS011;60471;52.150;4.508;2023-03-21T14:18:52;16.15;;;6.97;;
72464;SDS011;60471;52.150;4.508;2023-03-21T14:23:57;23.55;;;11.32;;
72464;SDS011;60471;52.150;4.508;2023-03-21T14:26:39;15.35;;;6.30;;
72464;SDS011;60471;52.150;4.508;2023-03-21T14:31:55;13.95;;;5.93;;
72464;SDS011;60471;52.150;4.508;2023-03-21T14:34:28;16.30;;;5.90;;
72464;SDS011;60471;52.150;4.508;2023-03-21T14:36:59;14.77;;;5.80;;
72464;SDS011;60471;52.150;4.508;2023-03-21T14:39:29;14.55;;;5.53;;
72464;SDS011;60471;52.150;4.508;2023-03-21T14:42:11;15.27;;;6.32;;
72464;SDS011;60471;52.150;4.508;2023-03-21T14:44:41;15.63;;;6.05;;
72464;SDS011;60471;52.150;4.508;2023-03-21T14:47:18;15.35;;;6.00;;
72464;SDS011;60471;52.150;4.508;2023-03-21T14:54:57;10.88;;;4.20;;
72464;SDS011;60471;52.150;4.508;2023-03-21T14:57:27;14.68;;;4.30;;
72464;SDS011;60471;52.150;4.508;2023-03-21T15:00:01;12.23;;;3.90;;
72464;SDS011;60471;52.150;4.508;2023-03-21T15:02:40;15.57;;;3.80;;
72464;SDS011;60471;52.150;4.508;2023-03-21T15:05:14;12.38;;;5.05;;
72464;SDS011;60471;52.150;4.508;2023-03-21T15:07:56;12.30;;;4.13;;
72464;SDS011;60471;52.150;4.508;2023-03-21T15:10:36;14.82;;;3.75;;
72464;SDS011;60471;52.150;4.508;2023-03-21T15:13:17;14.63;;;3.97;;
72464;SDS011;60471;52.150;4.508;2023-03-21T15:15:47;12.07;;;3.63;;
72464;SDS011;60471;52.150;4.508;2023-03-21T15:18:14;14.18;;;4.10;;
72464;SDS011;60471;52.150;4.508;2023-03-21T15:20:50;10.13;;;2.80;;
72464;SDS011;60471;52.150;4.508;2023-03-21T15:23:24;14.18;;;3.72;;
72464;SDS011;60471;52.150;4.508;2023-03-21T15:26:00;16.85;;;4.05;;
72464;SDS011;60471;52.150;4.508;2023-03-21T15:28:29;10.18;;;3.65;;
72464;SDS011;60471;52.150;4.508;2023-03-21T15:30:55;10.82;;;3.17;;
72464;SDS011;60471;52.150;4.508;2023-03-21T15:33:22;13.18;;;4.07;;
72464;SDS011;60471;52.150;4.508;2023-03-21T15:35:51;9.05;;;2.88;;
72464;SDS011;60471;52.150;4.508;2023-03-21T15:43:48;12.63;;;3.25;;
72464;SDS011;60471;52.150;4.508;2023-03-21T15:46:31;9.50;;;3.08;;
72464;SDS011;60471;52.150;4.508;2023-03-21T15:51:45;10.18;;;3.35;;
72464;SDS011;60471;52.150;4.508;2023-03-21T15:54:25;13.05;;;4.20;;
72464;SDS011;60471;52.150;4.508;2023-03-21T15:57:03;10.13;;;3.40;;
72464;SDS011;60471;52.150;4.508;2023-03-21T15:59:45;11.05;;;4.50;;
72464;SDS011;60471;52.150;4.508;2023-03-21T16:02:16;12.35;;;3.80;;
72464;SDS011;60471;52.150;4.508;2023-03-21T16:04:55;10.60;;;4.20;;
72464;SDS011;60471;52.150;4.508;2023-03-21T16:07:22;9.88;;;3.78;;
72464;SDS011;60471;52.150;4.508;2023-03-21T16:09:55;11.30;;;3.92;;
72464;SDS011;60471;52.150;4.508;2023-03-21T16:12:25;11.27;;;3.60;;
72464;SDS011;60471;52.150;4.508;2023-03-21T16:14:52;15.88;;;3.65;;
72464;SDS011;60471;52.150;4.508;2023-03-21T16:17:29;9.73;;;3.22;;
72464;SDS011;60471;52.150;4.508;2023-03-21T16:20:03;10.63;;;3.40;;
72464;SDS011;60471;52.150;4.508;2023-03-21T16:22:52;11.05;;;3.75;;
72464;SDS011;60471;52.150;4.508;2023-03-21T16:25:18;10.45;;;3.95;;
72464;SDS011;60471;52.150;4.508;2023-03-21T16:27:46;13.27;;;3.53;;
72464;SDS011;60471;52.150;4.508;2023-03-21T16:30:14;13.48;;;3.10;;
72464;SDS011;60471;52.150;4.508;2023-03-21T16:32:44;13.98;;;3.33;;
72464;SDS011;60471;52.150;4.508;2023-03-21T16:35:10;18.60;;;3.03;;
72464;SDS011;60471;52.150;4.508;2023-03-21T16:37:37;13.60;;;3.90;;
72464;SDS011;60471;52.150;4.508;2023-03-21T16:40:39;12.15;;;2.40;;
72464;SDS011;60471;52.150;4.508;2023-03-21T16:43:01;11.00;;;2.13;;
72464;SDS011;60471;52.150;4.508;2023-03-21T16:45:27;13.82;;;2.25;;
72464;SDS011;60471;52.150;4.508;2023-03-21T16:47:55;8.75;;;1.90;;
72464;SDS011;60471;52.150;4.508;2023-03-21T16:53:01;12.45;;;1.73;;
72464;SDS011;60471;52.150;4.508;2023-03-21T16:55:27;11.82;;;2.30;;
72464;SDS011;60471;52.150;4.508;2023-03-21T16:57:55;12.38;;;2.10;;
72464;SDS011;60471;52.150;4.508;2023-03-21T17:00:23;12.57;;;2.20;;
72464;SDS011;60471;52.150;4.508;2023-03-21T17:02:52;9.85;;;2.05;;
72464;SDS011;60471;52.150;4.508;2023-03-21T17:05:22;10.50;;;1.60;;
72464;SDS011;60471;52.150;4.508;2023-03-21T17:07:51;11.48;;;1.75;;
72464;SDS011;60471;52.150;4.508;2023-03-21T17:10:20;9.77;;;1.67;;
72464;SDS011;60471;52.150;4.508;2023-03-21T17:12:50;11.57;;;1.70;;
72464;SDS011;60471;52.150;4.508;2023-03-21T17:15:17;9.77;;;2.05;;
72464;SDS011;60471;52.150;4.508;2023-03-21T17:17:45;10.85;;;1.92;;
72464;SDS011;60471;52.150;4.508;2023-03-21T17:20:16;7.45;;;1.42;;
72464;SDS011;60471;52.150;4.508;2023-03-21T17:22:50;7.53;;;1.30;;
72464;SDS011;60471;52.150;4.508;2023-03-21T17:25:16;10.25;;;2.15;;
72464;SDS011;60471;52.150;4.508;2023-03-21T17:27:44;8.43;;;1.58;;
72464;SDS011;60471;52.150;4.508;2023-03-21T17:30:19;8.32;;;1.83;;
72464;SDS011;60471;52.150;4.508;2023-03-21T17:32:49;9.50;;;1.85;;